Saint Pete Beach, Florida
Current Conditions -  °F | °C
As of 2:53 AM on Sunday 26 Oct 2014 (Local Time) from KSPG Reporting Station
Clear Clear  
Wind Chill: 68°   Ceiling: Unl
Heat Index: 68°   Visibility: 10mi
Dew Point: 60°   Wind: 6mph
Humidity: 76%   Direction: 60°ENE
Pressure: 29.97"   Gusts: NA
Location:  27.7562°N, 82.7184°W
Report Text: KSPG 260653Z AUTO 06005KT 10SM CLR 20/16 A2997 RMK AO2 SLP148 T02000156
Loading
Personal Weather Stations






























Interactive Weather Map
Tropical Storm Tracking
New forecast layout! Learn more

10-Day Weather Forecast

Advertisements
Track Severe Weather on mobile